sensor_id;sensor_type;location;lat;lon;timestamp;pressure;altitude;pressure_sealevel;temperature;humidity
73316;BME280;61545;53.726;-0.444;2023-08-20T00:03:10;1013.9;;;17.7;100.0
73316;BME280;61545;53.726;-0.444;2023-08-20T00:08:07;1013.9;;;17.6;100.0
73316;BME280;61545;53.726;-0.444;2023-08-20T00:13:07;1014.0;;;17.8;100.0
73316;BME280;61545;53.726;-0.444;2023-08-20T00:18:07;1014.0;;;17.9;100.0
73316;BME280;61545;53.726;-0.444;2023-08-20T00:23:08;1014.0;;;17.6;100.0
73316;BME280;61545;53.726;-0.444;2023-08-20T00:28:07;1014.1;;;17.9;100.0
73316;BME280;61545;53.726;-0.444;2023-08-20T00:33:07;1014.2;;;17.6;100.0
73316;BME280;61545;53.726;-0.444;2023-08-20T00:38:07;1014.1;;;17.6;100.0
73316;BME280;61545;53.726;-0.444;2023-08-20T00:43:07;1014.1;;;17.7;100.0
73316;BME280;61545;53.726;-0.444;2023-08-20T00:48:07;1014.1;;;17.6;100.0
73316;BME280;61545;53.726;-0.444;2023-08-20T00:53:07;1014.2;;;17.5;100.0
73316;BME280;61545;53.726;-0.444;2023-08-20T00:58:07;1014.3;;;17.4;100.0
73316;BME280;61545;53.726;-0.444;2023-08-20T01:03:07;1014.3;;;17.4;100.0
73316;BME280;61545;53.726;-0.444;2023-08-20T01:08:15;1014.4;;;unknown;100.0
73316;BME280;61545;53.726;-0.444;2023-08-20T01:13:07;1014.5;;;17.6;100.0
73316;BME280;61545;53.726;-0.444;2023-08-20T01:18:07;1014.6;;;17.4;100.0
73316;BME280;61545;53.726;-0.444;2023-08-20T01:24:17;1014.5;;;17.5;100.0
73316;BME280;61545;53.726;-0.444;2023-08-20T01:28:19;1014.5;;;17.4;100.0
73316;BME280;61545;53.726;-0.444;2023-08-20T01:33:07;1014.6;;;17.4;100.0
73316;BME280;61545;53.726;-0.444;2023-08-20T01:38:07;1014.6;;;17.4;100.0
73316;BME280;61545;53.726;-0.444;2023-08-20T01:43:07;1014.6;;;17.4;100.0
73316;BME280;61545;53.726;-0.444;2023-08-20T01:48:07;1014.6;;;17.3;100.0
73316;BME280;61545;53.726;-0.444;2023-08-20T01:53:07;1014.7;;;17.2;100.0
73316;BME280;61545;53.726;-0.444;2023-08-20T01:58:07;1014.6;;;17.2;100.0
73316;BME280;61545;53.726;-0.444;2023-08-20T02:03:07;1014.6;;;17.3;100.0
73316;BME280;61545;53.726;-0.444;2023-08-20T02:08:07;1014.6;;;17.3;100.0
73316;BME280;61545;53.726;-0.444;2023-08-20T02:13:07;1014.6;;;17.2;100.0
73316;BME280;61545;53.726;-0.444;2023-08-20T02:18:07;1014.7;;;unknown;100.0
73316;BME280;61545;53.726;-0.444;2023-08-20T02:23:07;1014.8;;;17.2;100.0
73316;BME280;61545;53.726;-0.444;2023-08-20T02:28:07;1014.7;;;17.2;100.0
73316;BME280;61545;53.726;-0.444;2023-08-20T02:33:07;1014.8;;;17.2;100.0
73316;BME280;61545;53.726;-0.444;2023-08-20T02:38:07;1014.7;;;17.1;100.0
73316;BME280;61545;53.726;-0.444;2023-08-20T02:43:07;1014.8;;;17.2;100.0
73316;BME280;61545;53.726;-0.444;2023-08-20T02:48:07;1014.9;;;17.2;100.0
73316;BME280;61545;53.726;-0.444;2023-08-20T02:53:07;1014.9;;;17.1;100.0
73316;BME280;61545;53.726;-0.444;2023-08-20T02:58:07;1015.0;;;17.0;100.0
73316;BME280;61545;53.726;-0.444;2023-08-20T03:03:07;1014.9;;;17.0;100.0
73316;BME280;61545;53.726;-0.444;2023-08-20T03:08:07;1014.8;;;17.0;100.0
73316;BME280;61545;53.726;-0.444;2023-08-20T03:13:07;1014.9;;;16.9;100.0
73316;BME280;61545;53.726;-0.444;2023-08-20T03:18:07;1014.9;;;16.8;100.0
73316;BME280;61545;53.726;-0.444;2023-08-20T03:23:07;1014.9;;;16.8;100.0
73316;BME280;61545;53.726;-0.444;2023-08-20T03:28:07;1015.0;;;16.6;100.0
73316;BME280;61545;53.726;-0.444;2023-08-20T03:33:07;1015.0;;;16.8;100.0
73316;BME280;61545;53.726;-0.444;2023-08-20T03:38:07;1015.0;;;16.9;100.0
73316;BME280;61545;53.726;-0.444;2023-08-20T03:43:07;1015.2;;;16.7;100.0
73316;BME280;61545;53.726;-0.444;2023-08-20T03:48:07;1015.2;;;16.7;100.0
73316;BME280;61545;53.726;-0.444;2023-08-20T03:53:07;1015.2;;;16.7;100.0
73316;BME280;61545;53.726;-0.444;2023-08-20T03:58:07;1015.2;;;16.4;100.0
73316;BME280;61545;53.726;-0.444;2023-08-20T04:03:07;1015.2;;;16.4;100.0
73316;BME280;61545;53.726;-0.444;2023-08-20T04:08:07;1015.3;;;16.5;100.0
73316;BME280;61545;53.726;-0.444;2023-08-20T04:13:07;1015.3;;;16.5;100.0
73316;BME280;61545;53.726;-0.444;2023-08-20T04:18:07;1015.3;;;16.4;100.0
73316;BME280;61545;53.726;-0.444;2023-08-20T04:23:07;1015.4;;;16.5;100.0
73316;BME280;61545;53.726;-0.444;2023-08-20T04:28:07;1015.4;;;16.4;100.0
73316;BME280;61545;53.726;-0.444;2023-08-20T04:33:07;1015.4;;;16.5;100.0
73316;BME280;61545;53.726;-0.444;2023-08-20T04:38:07;1015.4;;;16.4;100.0
73316;BME280;61545;53.726;-0.444;2023-08-20T04:43:07;1015.5;;;16.5;100.0
73316;BME280;61545;53.726;-0.444;2023-08-20T04:48:07;1015.4;;;16.5;100.0
73316;BME280;61545;53.726;-0.444;2023-08-20T04:53:07;1015.4;;;16.5;100.0
73316;BME280;61545;53.726;-0.444;2023-08-20T04:58:07;1015.4;;;16.2;100.0
73316;BME280;61545;53.726;-0.444;2023-08-20T05:03:07;1015.4;;;16.3;100.0
73316;BME280;61545;53.726;-0.444;2023-08-20T05:08:07;1015.4;;;16.2;100.0
73316;BME280;61545;53.726;-0.444;2023-08-20T05:13:07;1015.5;;;16.4;100.0
73316;BME280;61545;53.726;-0.444;2023-08-20T05:18:07;1015.5;;;16.4;100.0
73316;BME280;61545;53.726;-0.444;2023-08-20T05:23:07;1015.6;;;16.4;100.0
73316;BME280;61545;53.726;-0.444;2023-08-20T05:28:07;1015.6;;;16.4;100.0
73316;BME280;61545;53.726;-0.444;2023-08-20T05:33:07;1015.6;;;16.2;100.0
73316;BME280;61545;53.726;-0.444;2023-08-20T05:38:07;1015.6;;;16.3;100.0
73316;BME280;61545;53.726;-0.444;2023-08-20T05:43:07;1015.6;;;16.4;100.0
73316;BME280;61545;53.726;-0.444;2023-08-20T05:48:07;1015.6;;;16.4;100.0
73316;BME280;61545;53.726;-0.444;2023-08-20T05:53:07;1015.7;;;16.3;100.0
73316;BME280;61545;53.726;-0.444;2023-08-20T05:58:07;1015.7;;;16.6;100.0
73316;BME280;61545;53.726;-0.444;2023-08-20T06:03:07;1015.7;;;unknown;100.0
73316;BME280;61545;53.726;-0.444;2023-08-20T06:08:07;1015.7;;;16.9;100.0
73316;BME280;61545;53.726;-0.444;2023-08-20T06:13:07;1015.7;;;16.9;100.0
73316;BME280;61545;53.726;-0.444;2023-08-20T06:18:07;1015.7;;;17.2;100.0
73316;BME280;61545;53.726;-0.444;2023-08-20T06:23:07;1015.8;;;17.6;100.0
73316;BME280;61545;53.726;-0.444;2023-08-20T06:28:08;1015.9;;;17.9;100.0
73316;BME280;61545;53.726;-0.444;2023-08-20T06:33:07;1015.9;;;18.2;100.0
73316;BME280;61545;53.726;-0.444;2023-08-20T06:38:07;1015.9;;;19.0;100.0
73316;BME280;61545;53.726;-0.444;2023-08-20T06:43:07;1015.9;;;19.3;100.0
73316;BME280;61545;53.726;-0.444;2023-08-20T06:48:07;1015.9;;;19.2;100.0
73316;BME280;61545;53.726;-0.444;2023-08-20T06:53:07;1015.9;;;19.0;100.0
73316;BME280;61545;53.726;-0.444;2023-08-20T06:58:07;1015.9;;;20.2;100.0
73316;BME280;61545;53.726;-0.444;2023-08-20T07:03:07;1015.9;;;20.5;100.0
73316;BME280;61545;53.726;-0.444;2023-08-20T07:08:07;1016.0;;;18.9;100.0
73316;BME280;61545;53.726;-0.444;2023-08-20T07:13:07;1016.1;;;19.9;100.0
73316;BME280;61545;53.726;-0.444;2023-08-20T07:18:07;1016.2;;;18.4;100.0
73316;BME280;61545;53.726;-0.444;2023-08-20T07:23:07;1016.4;;;19.2;100.0
73316;BME280;61545;53.726;-0.444;2023-08-20T07:28:08;1016.4;;;18.4;100.0
73316;BME280;61545;53.726;-0.444;2023-08-20T07:33:07;1016.4;;;20.2;100.0
73316;BME280;61545;53.726;-0.444;2023-08-20T07:38:07;1016.4;;;19.7;100.0
73316;BME280;61545;53.726;-0.444;2023-08-20T07:43:07;1016.2;;;20.0;100.0
73316;BME280;61545;53.726;-0.444;2023-08-20T07:48:07;1016.3;;;unknown;100.0
73316;BME280;61545;53.726;-0.444;2023-08-20T07:53:07;1016.3;;;21.5;100.0
73316;BME280;61545;53.726;-0.444;2023-08-20T07:58:07;1016.2;;;21.7;100.0
73316;BME280;61545;53.726;-0.444;2023-08-20T08:03:07;1016.3;;;22.1;100.0
73316;BME280;61545;53.726;-0.444;2023-08-20T08:08:07;1016.3;;;21.6;100.0
73316;BME280;61545;53.726;-0.444;2023-08-20T08:13:07;1016.3;;;21.1;100.0
73316;BME280;61545;53.726;-0.444;2023-08-20T08:18:08;1016.4;;;unknown;100.0
73316;BME280;61545;53.726;-0.444;2023-08-20T08:23:07;1016.3;;;21.8;100.0
73316;BME280;61545;53.726;-0.444;2023-08-20T08:28:07;1016.3;;;21.0;100.0
73316;BME280;61545;53.726;-0.444;2023-08-20T08:33:07;1016.4;;;21.3;100.0
73316;BME280;61545;53.726;-0.444;2023-08-20T08:38:07;1016.4;;;20.9;100.0
73316;BME280;61545;53.726;-0.444;2023-08-20T08:43:07;1016.5;;;22.0;100.0
73316;BME280;61545;53.726;-0.444;2023-08-20T08:48:07;1016.5;;;22.5;100.0
73316;BME280;61545;53.726;-0.444;2023-08-20T08:53:07;1016.5;;;21.9;100.0
73316;BME280;61545;53.726;-0.444;2023-08-20T08:58:07;1016.4;;;22.7;100.0
73316;BME280;61545;53.726;-0.444;2023-08-20T09:03:07;1016.4;;;23.5;100.0
73316;BME280;61545;53.726;-0.444;2023-08-20T09:08:07;1016.4;;;22.8;100.0
73316;BME280;61545;53.726;-0.444;2023-08-20T09:13:07;1016.5;;;23.0;100.0
73316;BME280;61545;53.726;-0.444;2023-08-20T09:18:09;1016.5;;;22.4;100.0
73316;BME280;61545;53.726;-0.444;2023-08-20T09:23:10;1016.5;;;unknown;100.0
73316;BME280;61545;53.726;-0.444;2023-08-20T09:28:07;1016.6;;;23.1;100.0
73316;BME280;61545;53.726;-0.444;2023-08-20T09:33:10;1016.5;;;24.2;100.0
73316;BME280;61545;53.726;-0.444;2023-08-20T09:38:07;1016.5;;;unknown;100.0
73316;BME280;61545;53.726;-0.444;2023-08-20T09:43:07;1016.5;;;23.2;100.0
73316;BME280;61545;53.726;-0.444;2023-08-20T09:48:07;1016.5;;;23.7;100.0
73316;BME280;61545;53.726;-0.444;2023-08-20T09:53:11;1016.4;;;22.9;100.0
73316;BME280;61545;53.726;-0.444;2023-08-20T09:58:07;1016.5;;;22.6;100.0
73316;BME280;61545;53.726;-0.444;2023-08-20T10:03:07;1016.5;;;22.9;100.0
73316;BME280;61545;53.726;-0.444;2023-08-20T10:08:07;1016.4;;;23.0;100.0
73316;BME280;61545;53.726;-0.444;2023-08-20T10:13:07;1016.3;;;22.4;100.0
73316;BME280;61545;53.726;-0.444;2023-08-20T10:18:07;1016.4;;;22.9;100.0
73316;BME280;61545;53.726;-0.444;2023-08-20T10:23:07;1016.3;;;unknown;100.0
73316;BME280;61545;53.726;-0.444;2023-08-20T10:28:12;1016.3;;;23.9;100.0
73316;BME280;61545;53.726;-0.444;2023-08-20T10:33:07;1016.3;;;23.3;100.0
73316;BME280;61545;53.726;-0.444;2023-08-20T10:38:11;1016.3;;;23.4;100.0
73316;BME280;61545;53.726;-0.444;2023-08-20T10:43:07;1016.3;;;22.9;100.0
73316;BME280;61545;53.726;-0.444;2023-08-20T10:48:07;1016.3;;;23.4;100.0
73316;BME280;61545;53.726;-0.444;2023-08-20T10:53:07;1016.3;;;unknown;100.0
73316;BME280;61545;53.726;-0.444;2023-08-20T10:58:07;1016.4;;;23.2;100.0
73316;BME280;61545;53.726;-0.444;2023-08-20T11:03:07;1016.3;;;unknown;100.0
73316;BME280;61545;53.726;-0.444;2023-08-20T11:08:07;1016.2;;;23.1;100.0
73316;BME280;61545;53.726;-0.444;2023-08-20T11:13:07;1016.2;;;22.5;100.0
73316;BME280;61545;53.726;-0.444;2023-08-20T11:18:07;1016.2;;;22.9;100.0
73316;BME280;61545;53.726;-0.444;2023-08-20T11:23:08;1016.2;;;23.6;100.0
73316;BME280;61545;53.726;-0.444;2023-08-20T11:28:07;1016.2;;;23.8;100.0
73316;BME280;61545;53.726;-0.444;2023-08-20T11:33:07;1016.2;;;23.2;100.0
73316;BME280;61545;53.726;-0.444;2023-08-20T11:38:09;1016.1;;;22.7;100.0
73316;BME280;61545;53.726;-0.444;2023-08-20T11:43:08;1016.1;;;22.8;100.0
73316;BME280;61545;53.726;-0.444;2023-08-20T11:48:08;1016.2;;;22.6;100.0
73316;BME280;61545;53.726;-0.444;2023-08-20T11:53:08;1016.2;;;22.3;100.0
73316;BME280;61545;53.726;-0.444;2023-08-20T11:58:11;1016.2;;;22.2;100.0
73316;BME280;61545;53.726;-0.444;2023-08-20T12:03:08;1016.2;;;22.9;100.0
73316;BME280;61545;53.726;-0.444;2023-08-20T12:08:07;1016.2;;;22.9;100.0
73316;BME280;61545;53.726;-0.444;2023-08-20T12:13:08;1016.2;;;23.0;100.0
73316;BME280;61545;53.726;-0.444;2023-08-20T12:18:07;1016.2;;;22.9;100.0
73316;BME280;61545;53.726;-0.444;2023-08-20T12:23:07;1016.1;;;22.9;100.0
73316;BME280;61545;53.726;-0.444;2023-08-20T12:28:07;1016.1;;;22.9;100.0
73316;BME280;61545;53.726;-0.444;2023-08-20T12:33:07;1016.1;;;22.5;100.0
73316;BME280;61545;53.726;-0.444;2023-08-20T12:38:07;1016.0;;;22.8;100.0
73316;BME280;61545;53.726;-0.444;2023-08-20T12:43:07;1016.0;;;22.9;100.0
73316;BME280;61545;53.726;-0.444;2023-08-20T12:48:07;1016.0;;;unknown;100.0
73316;BME280;61545;53.726;-0.444;2023-08-20T12:53:07;1016.1;;;22.5;100.0
73316;BME280;61545;53.726;-0.444;2023-08-20T12:58:07;1016.1;;;unknown;100.0
73316;BME280;61545;53.726;-0.444;2023-08-20T13:03:08;1016.0;;;23.2;100.0
73316;BME280;61545;53.726;-0.444;2023-08-20T13:08:08;1016.0;;;23.9;100.0
73316;BME280;61545;53.726;-0.444;2023-08-20T13:13:09;1016.1;;;23.7;100.0
73316;BME280;61545;53.726;-0.444;2023-08-20T13:18:08;1016.0;;;23.1;100.0
73316;BME280;61545;53.726;-0.444;2023-08-20T13:23:07;1016.0;;;22.7;100.0
73316;BME280;61545;53.726;-0.444;2023-08-20T13:28:07;1016.0;;;22.6;100.0
73316;BME280;61545;53.726;-0.444;2023-08-20T13:33:08;1016.2;;;22.4;100.0
73316;BME280;61545;53.726;-0.444;2023-08-20T13:38:07;1016.2;;;unknown;100.0
73316;BME280;61545;53.726;-0.444;2023-08-20T13:43:07;1016.1;;;22.9;100.0
73316;BME280;61545;53.726;-0.444;2023-08-20T13:48:07;1016.2;;;23.5;100.0
73316;BME280;61545;53.726;-0.444;2023-08-20T13:53:08;1016.1;;;23.7;100.0
73316;BME280;61545;53.726;-0.444;2023-08-20T13:58:07;1016.1;;;23.8;100.0
73316;BME280;61545;53.726;-0.444;2023-08-20T14:03:08;1016.1;;;23.5;100.0
73316;BME280;61545;53.726;-0.444;2023-08-20T14:08:07;1016.1;;;22.8;100.0
73316;BME280;61545;53.726;-0.444;2023-08-20T14:13:08;1016.1;;;22.9;100.0
73316;BME280;61545;53.726;-0.444;2023-08-20T14:18:08;1016.1;;;22.9;100.0
73316;BME280;61545;53.726;-0.444;2023-08-20T14:23:08;1016.1;;;23.1;100.0
73316;BME280;61545;53.726;-0.444;2023-08-20T14:28:08;1016.0;;;22.9;100.0
73316;BME280;61545;53.726;-0.444;2023-08-20T14:33:08;1015.9;;;23.5;100.0
73316;BME280;61545;53.726;-0.444;2023-08-20T14:38:08;1015.9;;;23.5;100.0
73316;BME280;61545;53.726;-0.444;2023-08-20T14:43:08;1015.9;;;22.9;100.0
73316;BME280;61545;53.726;-0.444;2023-08-20T14:48:08;1015.9;;;unknown;100.0
73316;BME280;61545;53.726;-0.444;2023-08-20T14:53:08;1016.0;;;23.4;100.0
73316;BME280;61545;53.726;-0.444;2023-08-20T14:58:08;1016.0;;;23.4;100.0
73316;BME280;61545;53.726;-0.444;2023-08-20T15:03:08;1015.9;;;23.6;100.0
73316;BME280;61545;53.726;-0.444;2023-08-20T15:08:08;1015.8;;;23.6;100.0
73316;BME280;61545;53.726;-0.444;2023-08-20T15:13:08;1015.8;;;23.6;100.0
73316;BME280;61545;53.726;-0.444;2023-08-20T15:18:08;1015.8;;;23.7;100.0
73316;BME280;61545;53.726;-0.444;2023-08-20T15:23:08;1015.9;;;23.0;100.0
73316;BME280;61545;53.726;-0.444;2023-08-20T15:28:08;1015.9;;;22.7;100.0
73316;BME280;61545;53.726;-0.444;2023-08-20T15:33:08;1015.9;;;22.5;100.0
73316;BME280;61545;53.726;-0.444;2023-08-20T15:38:08;1015.8;;;23.2;100.0
73316;BME280;61545;53.726;-0.444;2023-08-20T15:43:08;1015.8;;;22.8;100.0
73316;BME280;61545;53.726;-0.444;2023-08-20T15:48:08;1015.8;;;22.4;100.0
73316;BME280;61545;53.726;-0.444;2023-08-20T15:53:08;1015.8;;;unknown;100.0
73316;BME280;61545;53.726;-0.444;2023-08-20T15:58:08;1015.8;;;unknown;100.0
73316;BME280;61545;53.726;-0.444;2023-08-20T16:03:08;1015.8;;;22.9;100.0
73316;BME280;61545;53.726;-0.444;2023-08-20T16:08:08;1015.7;;;23.0;100.0
73316;BME280;61545;53.726;-0.444;2023-08-20T16:13:08;1015.7;;;23.0;100.0
73316;BME280;61545;53.726;-0.444;2023-08-20T16:18:08;1015.7;;;23.0;100.0
73316;BME280;61545;53.726;-0.444;2023-08-20T16:23:08;1015.7;;;23.1;100.0
73316;BME280;61545;53.726;-0.444;2023-08-20T16:28:08;1015.7;;;22.9;100.0
73316;BME280;61545;53.726;-0.444;2023-08-20T16:33:08;1015.8;;;23.0;100.0
73316;BME280;61545;53.726;-0.444;2023-08-20T16:38:08;1015.8;;;22.9;100.0
73316;BME280;61545;53.726;-0.444;2023-08-20T16:43:08;1015.8;;;22.8;100.0
73316;BME280;61545;53.726;-0.444;2023-08-20T16:48:08;1015.8;;;22.9;100.0
73316;BME280;61545;53.726;-0.444;2023-08-20T16:53:08;1015.9;;;22.7;100.0
73316;BME280;61545;53.726;-0.444;2023-08-20T16:58:08;1015.8;;;22.7;100.0
73316;BME280;61545;53.726;-0.444;2023-08-20T17:03:08;1015.9;;;22.6;100.0
73316;BME280;61545;53.726;-0.444;2023-08-20T17:08:08;1015.8;;;22.6;100.0
73316;BME280;61545;53.726;-0.444;2023-08-20T17:13:08;1015.9;;;22.7;100.0
73316;BME280;61545;53.726;-0.444;2023-08-20T17:18:07;1015.9;;;22.5;100.0
73316;BME280;61545;53.726;-0.444;2023-08-20T17:23:08;1015.9;;;22.4;100.0
73316;BME280;61545;53.726;-0.444;2023-08-20T17:28:08;1016.0;;;22.4;100.0
73316;BME280;61545;53.726;-0.444;2023-08-20T17:33:08;1016.0;;;22.2;100.0
73316;BME280;61545;53.726;-0.444;2023-08-20T17:38:08;1016.0;;;22.2;100.0
73316;BME280;61545;53.726;-0.444;2023-08-20T17:43:08;1016.1;;;22.1;100.0
73316;BME280;61545;53.726;-0.444;2023-08-20T17:48:08;1016.1;;;22.0;100.0
73316;BME280;61545;53.726;-0.444;2023-08-20T17:53:08;1016.2;;;22.0;100.0
73316;BME280;61545;53.726;-0.444;2023-08-20T17:58:07;1016.2;;;21.9;100.0
73316;BME280;61545;53.726;-0.444;2023-08-20T18:03:07;1016.2;;;21.8;100.0
73316;BME280;61545;53.726;-0.444;2023-08-20T18:08:08;1016.3;;;21.7;100.0
73316;BME280;61545;53.726;-0.444;2023-08-20T18:13:08;1016.4;;;21.6;100.0
73316;BME280;61545;53.726;-0.444;2023-08-20T18:18:08;1016.4;;;21.5;100.0
73316;BME280;61545;53.726;-0.444;2023-08-20T18:23:07;1016.3;;;21.4;100.0
73316;BME280;61545;53.726;-0.444;2023-08-20T18:28:07;1016.4;;;21.4;100.0
73316;BME280;61545;53.726;-0.444;2023-08-20T18:33:08;1016.4;;;21.2;100.0
73316;BME280;61545;53.726;-0.444;2023-08-20T18:38:15;1016.4;;;21.1;100.0
73316;BME280;61545;53.726;-0.444;2023-08-20T18:43:07;1016.5;;;21.0;100.0
73316;BME280;61545;53.726;-0.444;2023-08-20T18:48:07;1016.5;;;21.0;100.0
73316;BME280;61545;53.726;-0.444;2023-08-20T18:53:08;1016.7;;;20.9;100.0
73316;BME280;61545;53.726;-0.444;2023-08-20T18:58:07;1016.7;;;20.9;100.0
73316;BME280;61545;53.726;-0.444;2023-08-20T19:03:07;1016.7;;;20.7;100.0
73316;BME280;61545;53.726;-0.444;2023-08-20T19:08:07;1016.8;;;20.6;100.0
73316;BME280;61545;53.726;-0.444;2023-08-20T19:13:08;1016.8;;;20.4;100.0
73316;BME280;61545;53.726;-0.444;2023-08-20T19:18:07;1016.9;;;20.3;100.0
73316;BME280;61545;53.726;-0.444;2023-08-20T19:23:07;1016.9;;;20.2;100.0
73316;BME280;61545;53.726;-0.444;2023-08-20T19:28:07;1017.0;;;20.0;100.0
73316;BME280;61545;53.726;-0.444;2023-08-20T19:33:08;1017.2;;;20.0;100.0
73316;BME280;61545;53.726;-0.444;2023-08-20T19:38:07;1017.2;;;19.9;100.0
73316;BME280;61545;53.726;-0.444;2023-08-20T19:43:08;1017.3;;;unknown;100.0
73316;BME280;61545;53.726;-0.444;2023-08-20T19:48:07;1017.2;;;19.7;100.0
73316;BME280;61545;53.726;-0.444;2023-08-20T19:53:07;1017.2;;;19.6;100.0
73316;BME280;61545;53.726;-0.444;2023-08-20T19:58:08;1017.3;;;19.6;100.0
73316;BME280;61545;53.726;-0.444;2023-08-20T20:03:07;1017.3;;;19.5;100.0
73316;BME280;61545;53.726;-0.444;2023-08-20T20:08:07;1017.3;;;19.4;100.0
73316;BME280;61545;53.726;-0.444;2023-08-20T20:13:07;1017.4;;;19.3;100.0
73316;BME280;61545;53.726;-0.444;2023-08-20T20:18:07;1017.4;;;19.2;100.0
73316;BME280;61545;53.726;-0.444;2023-08-20T20:23:07;1017.4;;;19.2;100.0
73316;BME280;61545;53.726;-0.444;2023-08-20T20:28:08;1017.4;;;19.2;100.0
73316;BME280;61545;53.726;-0.444;2023-08-20T20:33:07;1017.4;;;19.2;100.0
73316;BME280;61545;53.726;-0.444;2023-08-20T20:38:07;1017.4;;;19.1;100.0
73316;BME280;61545;53.726;-0.444;2023-08-20T20:43:07;1017.4;;;19.0;100.0
73316;BME280;61545;53.726;-0.444;2023-08-20T20:48:08;1017.5;;;18.9;100.0
73316;BME280;61545;53.726;-0.444;2023-08-20T20:53:07;1017.5;;;18.9;100.0
73316;BME280;61545;53.726;-0.444;2023-08-20T20:58:07;1017.5;;;18.7;100.0
73316;BME280;61545;53.726;-0.444;2023-08-20T21:03:07;1017.5;;;18.7;100.0
73316;BME280;61545;53.726;-0.444;2023-08-20T21:08:07;1017.4;;;18.6;100.0
73316;BME280;61545;53.726;-0.444;2023-08-20T21:13:07;1017.4;;;18.6;100.0
73316;BME280;61545;53.726;-0.444;2023-08-20T21:18:08;1017.4;;;18.6;100.0
73316;BME280;61545;53.726;-0.444;2023-08-20T21:23:07;1017.5;;;18.5;100.0
73316;BME280;61545;53.726;-0.444;2023-08-20T21:28:08;1017.6;;;18.4;100.0
73316;BME280;61545;53.726;-0.444;2023-08-20T21:33:07;1017.5;;;18.4;100.0
73316;BME280;61545;53.726;-0.444;2023-08-20T21:38:08;1017.6;;;18.3;100.0
73316;BME280;61545;53.726;-0.444;2023-08-20T21:43:07;1017.7;;;18.2;100.0
73316;BME280;61545;53.726;-0.444;2023-08-20T21:48:07;1017.7;;;18.3;100.0
73316;BME280;61545;53.726;-0.444;2023-08-20T21:53:07;1017.7;;;18.3;100.0
73316;BME280;61545;53.726;-0.444;2023-08-20T21:58:08;1017.8;;;18.4;100.0
73316;BME280;61545;53.726;-0.444;2023-08-20T22:03:07;1017.7;;;18.4;100.0
73316;BME280;61545;53.726;-0.444;2023-08-20T22:08:07;1017.7;;;18.4;100.0
73316;BME280;61545;53.726;-0.444;2023-08-20T22:13:07;1017.7;;;18.3;100.0
73316;BME280;61545;53.726;-0.444;2023-08-20T22:18:07;1017.7;;;18.3;100.0
73316;BME280;61545;53.726;-0.444;2023-08-20T22:23:07;1017.7;;;18.5;100.0
73316;BME280;61545;53.726;-0.444;2023-08-20T22:28:07;1017.8;;;18.7;100.0
73316;BME280;61545;53.726;-0.444;2023-08-20T22:33:07;1017.8;;;18.5;100.0
73316;BME280;61545;53.726;-0.444;2023-08-20T22:38:08;1017.9;;;18.4;100.0
73316;BME280;61545;53.726;-0.444;2023-08-20T22:43:07;1017.9;;;18.4;100.0
73316;BME280;61545;53.726;-0.444;2023-08-20T22:48:07;1017.9;;;18.2;100.0
73316;BME280;61545;53.726;-0.444;2023-08-20T22:53:07;1018.0;;;18.3;100.0
73316;BME280;61545;53.726;-0.444;2023-08-20T22:58:07;1018.0;;;18.2;100.0
73316;BME280;61545;53.726;-0.444;2023-08-20T23:03:07;1018.0;;;18.0;100.0
73316;BME280;61545;53.726;-0.444;2023-08-20T23:08:07;1018.0;;;17.9;100.0
73316;BME280;61545;53.726;-0.444;2023-08-20T23:13:07;1018.0;;;17.9;100.0
73316;BME280;61545;53.726;-0.444;2023-08-20T23:18:07;1018.0;;;18.0;100.0
73316;BME280;61545;53.726;-0.444;2023-08-20T23:23:07;1018.0;;;17.9;100.0
73316;BME280;61545;53.726;-0.444;2023-08-20T23:28:07;1018.0;;;17.9;100.0
73316;BME280;61545;53.726;-0.444;2023-08-20T23:33:07;1018.0;;;17.7;100.0
73316;BME280;61545;53.726;-0.444;2023-08-20T23:38:08;1018.0;;;17.7;100.0
73316;BME280;61545;53.726;-0.444;2023-08-20T23:43:07;1017.9;;;17.7;100.0
73316;BME280;61545;53.726;-0.444;2023-08-20T23:48:07;1017.8;;;17.6;100.0
73316;BME280;61545;53.726;-0.444;2023-08-20T23:53:07;1017.9;;;17.6;100.0
73316;BME280;61545;53.726;-0.444;2023-08-20T23:58:07;1017.9;;;17.5;100.0
